Terminal Aerodrome Forecast
Issued by NWS Pocatello, ID

Home | Current Version | Previous Version | Text Only | Print | Product List | Glossary On
Versions: 1 2 3 4 5 6 7 8 9 10 11
523
FTUS45 KPIH 240520
TAFBYI
TAF
KBYI 240520Z 2406/2506 VRB06KT P6SM SCT100
     FM241900 25009KT P6SM VCTS SCT050CB BKN100
     FM250200 24007KT P6SM BKN100=

USA.gov is the U.S. government's official web portal to all federal, state and local government web resources and services.